createdAt,value
2023-01-13T00:01:57.712Z,44.83
2023-01-13T00:05:00.467Z,52.10
2023-01-13T00:08:04.964Z,52.13
2023-01-13T00:11:07.586Z,46.10
2023-01-13T00:14:09.977Z,54.15
2023-01-13T00:17:12.577Z,55.63
2023-01-13T00:20:15.231Z,54.73
2023-01-13T00:23:17.942Z,49.85
2023-01-13T00:26:26.184Z,53.22
2023-01-13T00:29:29.176Z,55.22
2023-01-13T00:32:31.782Z,50.65
2023-01-13T00:35:34.412Z,56.07
2023-01-13T00:38:37.785Z,49.15
2023-01-13T00:41:59.249Z,49.90
2023-01-13T00:45:02.137Z,49.60
2023-01-13T00:48:04.743Z,52.22
2023-01-13T00:51:11.078Z,47.60
2023-01-13T00:54:13.716Z,50.25
2023-01-13T00:57:16.172Z,51.72
2023-01-13T01:00:19.540Z,49.30
2023-01-13T01:03:21.921Z,52.13
2023-01-13T01:06:26.819Z,52.53
2023-01-13T01:09:32.777Z,49.42
2023-01-13T01:12:35.476Z,47.80
2023-01-13T01:15:41.669Z,45.15
2023-01-13T01:18:46.746Z,48.22
2023-01-13T01:21:49.046Z,45.13
2023-01-13T01:24:51.631Z,49.33
2023-01-13T01:27:54.275Z,45.35
2023-01-13T01:30:58.528Z,42.55
2023-01-13T01:34:01.359Z,42.03
2023-01-13T01:37:03.941Z,41.87
2023-01-13T01:40:09.116Z,44.78
2023-01-13T01:43:35.677Z,44.38
2023-01-13T01:46:40.441Z,41.70
2023-01-13T01:49:45.687Z,39.40
2023-01-13T01:52:54.464Z,41.47
2023-01-13T01:55:59.408Z,46.55
2023-01-13T01:59:02.058Z,41.47
2023-01-13T02:02:04.769Z,41.88
2023-01-13T02:05:07.850Z,41.75
2023-01-13T02:08:13.185Z,39.50
2023-01-13T02:11:51.709Z,43.78
2023-01-13T02:14:54.109Z,44.55
2023-01-13T02:18:11.991Z,42.80
2023-01-13T02:21:32.548Z,40.60
2023-01-13T02:25:01.387Z,38.07
2023-01-13T02:29:07.733Z,40.88
2023-01-13T02:32:26.110Z,34.42
2023-01-13T02:35:33.166Z,33.60
2023-01-13T02:38:49.070Z,35.85
2023-01-13T02:42:20.054Z,32.23
2023-01-13T02:45:29.075Z,39.03
2023-01-13T02:48:32.994Z,33.45
2023-01-13T02:51:38.651Z,32.10
2023-01-13T02:54:47.459Z,36.15
2023-01-13T02:57:51.324Z,36.47
2023-01-13T03:00:53.846Z,36.05
2023-01-13T03:03:56.517Z,30.17
2023-01-13T03:07:12.874Z,33.72
2023-01-13T03:10:34.133Z,33.33
2023-01-13T03:13:54.886Z,32.00
2023-01-13T03:17:09.587Z,29.40
2023-01-13T03:20:27.399Z,31.65
2023-01-13T03:24:05.687Z,33.47
2023-01-13T03:27:11.788Z,33.40
2023-01-13T03:30:29.727Z,31.67
2023-01-13T03:33:40.466Z,39.17
2023-01-13T03:36:46.765Z,36.10
2023-01-13T03:39:56.504Z,33.00
2023-01-13T03:43:42.584Z,32.47
2023-01-13T03:46:50.774Z,35.90
2023-01-13T03:49:55.966Z,30.85
2023-01-13T03:53:14.013Z,35.35
2023-01-13T03:56:30.075Z,27.90
2023-01-13T03:59:38.645Z,33.67
2023-01-13T04:02:52.892Z,34.93
2023-01-13T04:06:04.284Z,33.72
2023-01-13T04:09:18.126Z,36.38
2023-01-13T04:12:28.452Z,31.45
2023-01-13T04:15:57.381Z,32.83
2023-01-13T04:19:00.090Z,31.33
2023-01-13T04:22:02.549Z,35.20
2023-01-13T04:25:08.026Z,34.88
2023-01-13T04:28:11.202Z,35.10
2023-01-13T04:31:13.896Z,34.83
2023-01-13T04:34:16.309Z,34.67
2023-01-13T04:37:19.005Z,31.45
2023-01-13T04:40:21.489Z,29.92
2023-01-13T04:43:24.198Z,27.67
2023-01-13T04:46:26.713Z,31.80
2023-01-13T04:49:29.510Z,30.17
2023-01-13T04:52:31.864Z,31.75
2023-01-13T04:55:35.379Z,31.27
2023-01-13T04:58:37.756Z,32.85
2023-01-13T05:01:40.658Z,31.83
2023-01-13T05:04:43.111Z,29.73
2023-01-13T05:07:45.919Z,33.05
2023-01-13T05:10:48.249Z,33.40
2023-01-13T05:14:09.667Z,31.98
2023-01-13T05:17:24.130Z,31.27
2023-01-13T05:20:26.871Z,30.40
2023-01-13T05:23:47.875Z,34.75
2023-01-13T05:26:50.570Z,30.83
2023-01-13T05:29:53.772Z,35.92
2023-01-13T05:32:56.799Z,33.38
2023-01-13T05:36:02.789Z,32.97
2023-01-13T05:39:05.441Z,28.38
2023-01-13T05:42:26.687Z,31.62
2023-01-13T05:45:31.671Z,32.80
2023-01-13T05:48:42.544Z,31.17
2023-01-13T05:51:45.253Z,29.40
2023-01-13T05:54:47.621Z,30.00
2023-01-13T05:57:50.251Z,29.73
2023-01-13T06:00:53.298Z,31.20
2023-01-13T06:03:55.958Z,30.23
2023-01-13T06:06:58.257Z,32.87
2023-01-13T06:10:00.832Z,34.53
2023-01-13T06:13:04.167Z,36.38
2023-01-13T06:16:07.077Z,34.40
2023-01-13T06:19:13.493Z,31.05
2023-01-13T06:22:17.592Z,36.83
2023-01-13T06:25:26.585Z,35.03
2023-01-13T06:28:29.323Z,37.28
2023-01-13T06:31:35.595Z,33.40
2023-01-13T06:34:40.098Z,34.20
2023-01-13T06:37:45.029Z,31.10
2023-01-13T06:40:48.039Z,33.95
2023-01-13T06:43:50.405Z,33.08
2023-01-13T06:46:53.241Z,31.48
2023-01-13T06:49:55.732Z,31.10
2023-01-13T06:52:59.116Z,35.43
2023-01-13T06:56:01.598Z,33.45
2023-01-13T06:59:04.247Z,30.92
2023-01-13T07:02:06.833Z,32.88
2023-01-13T07:05:09.720Z,30.40
2023-01-13T07:08:12.377Z,35.50
2023-01-13T07:11:15.202Z,32.03
2023-01-13T07:14:36.470Z,35.20
2023-01-13T07:17:39.138Z,29.23
2023-01-13T07:20:41.499Z,32.95
2023-01-13T07:23:44.257Z,33.67
2023-01-13T07:26:46.625Z,31.77
2023-01-13T07:29:49.353Z,31.40
2023-01-13T07:32:51.729Z,33.72
2023-01-13T07:36:00.203Z,26.20
2023-01-13T07:39:03.023Z,28.53
2023-01-13T07:42:24.457Z,29.48
2023-01-13T07:45:26.936Z,29.80
2023-01-13T07:48:30.559Z,32.35
2023-01-13T07:51:37.460Z,27.77
2023-01-13T07:54:41.320Z,27.97
2023-01-13T07:57:43.800Z,25.40
2023-01-13T08:00:46.650Z,26.65
2023-01-13T08:03:49.425Z,29.65
2023-01-13T08:06:51.754Z,25.52
2023-01-13T08:09:54.408Z,26.90
2023-01-13T08:13:15.629Z,29.10
2023-01-13T08:16:18.387Z,28.55
2023-01-13T08:19:20.767Z,23.08
2023-01-13T08:22:23.396Z,26.62
2023-01-13T08:25:27.117Z,21.80
2023-01-13T08:28:30.131Z,22.73
2023-01-13T08:31:32.448Z,25.58
2023-01-13T08:34:36.231Z,22.45
2023-01-13T08:37:39.129Z,20.50
2023-01-13T08:40:41.862Z,23.00
2023-01-13T08:43:44.214Z,24.12
2023-01-13T08:46:47.022Z,23.17
2023-01-13T08:49:49.440Z,23.98
2023-01-13T08:52:52.063Z,23.92
2023-01-13T08:55:54.423Z,22.60
2023-01-13T08:59:00.909Z,20.75
2023-01-13T09:02:04.444Z,24.35
2023-01-13T09:05:08.287Z,25.77
2023-01-13T09:08:10.608Z,22.92
2023-01-13T09:11:52.691Z,25.03
2023-01-13T09:14:55.020Z,22.83
2023-01-13T09:17:57.732Z,25.95
2023-01-13T09:21:00.079Z,26.35
2023-01-13T09:24:02.771Z,26.50
2023-01-13T09:27:05.136Z,23.33
2023-01-13T09:30:08.943Z,29.12
2023-01-13T09:33:30.305Z,30.88
2023-01-13T09:36:33.045Z,23.42
2023-01-13T09:39:36.479Z,28.45
2023-01-13T09:43:04.864Z,30.83
2023-01-13T09:46:47.224Z,26.45
2023-01-13T09:49:50.701Z,26.33
2023-01-13T09:52:53.565Z,28.62
2023-01-13T09:55:56.616Z,27.77
2023-01-13T09:58:59.052Z,28.20
2023-01-13T10:02:22.346Z,32.20
2023-01-13T10:05:37.297Z,30.33
2023-01-13T10:08:42.632Z,25.62
2023-01-13T10:12:07.283Z,30.05
2023-01-13T10:15:19.911Z,28.77
2023-01-13T10:18:35.477Z,29.67
2023-01-13T10:21:52.571Z,34.72
2023-01-13T10:25:20.952Z,24.87
2023-01-13T10:28:25.183Z,35.22
2023-01-13T10:31:28.205Z,32.83
2023-01-13T10:34:30.649Z,30.42
2023-01-13T10:37:33.439Z,40.72
2023-01-13T10:40:35.808Z,29.48
2023-01-13T10:43:38.720Z,31.67
2023-01-13T10:46:53.538Z,32.60
2023-01-13T10:50:17.187Z,29.80
2023-01-13T10:53:31.016Z,34.13
2023-01-13T10:56:41.047Z,28.52
2023-01-13T10:59:54.957Z,29.15
2023-01-13T11:03:09.906Z,30.23
2023-01-13T11:06:30.349Z,33.55
2023-01-13T11:09:33.820Z,33.20
2023-01-13T11:13:08.721Z,34.78
2023-01-13T11:16:16.520Z,35.25
2023-01-13T11:19:22.755Z,34.13
2023-01-13T11:22:34.065Z,32.55
2023-01-13T11:25:46.880Z,32.97
2023-01-13T11:28:58.280Z,33.85
2023-01-13T11:32:29.621Z,39.30
2023-01-13T11:35:36.081Z,34.57
2023-01-13T11:38:53.899Z,33.38
2023-01-13T11:42:20.487Z,35.75
2023-01-13T11:45:42.631Z,36.72
2023-01-13T11:48:45.471Z,34.58
2023-01-13T11:52:15.090Z,38.03
2023-01-13T11:55:54.462Z,38.13
2023-01-13T11:59:11.927Z,34.28
2023-01-13T12:02:39.211Z,38.92
2023-01-13T12:05:59.711Z,39.97
2023-01-13T12:09:48.805Z,37.10
2023-01-13T12:13:03.393Z,37.05
2023-01-13T12:16:26.155Z,33.70
2023-01-13T12:19:32.475Z,38.65
2023-01-13T12:22:37.286Z,39.42
2023-01-13T12:25:47.205Z,38.17
2023-01-13T12:28:56.336Z,35.58
2023-01-13T12:32:01.821Z,38.63
2023-01-13T12:35:34.577Z,42.07
2023-01-13T12:38:44.886Z,41.83
2023-01-13T12:42:14.347Z,40.53
2023-01-13T12:45:30.370Z,37.58
2023-01-13T12:48:59.511Z,41.55
2023-01-13T12:52:13.988Z,37.58
2023-01-13T12:55:20.117Z,40.00
2023-01-13T12:58:28.653Z,40.05
2023-01-13T13:01:36.043Z,40.63
2023-01-13T13:04:43.403Z,43.60
2023-01-13T13:07:49.762Z,43.35
2023-01-13T13:11:37.928Z,45.03
2023-01-13T13:14:40.276Z,45.88
2023-01-13T13:17:44.841Z,41.30
2023-01-13T13:21:13.742Z,41.50
2023-01-13T13:24:18.215Z,40.45
2023-01-13T13:27:40.949Z,43.87
2023-01-13T13:30:57.961Z,48.05
2023-01-13T13:34:16.279Z,42.10
2023-01-13T13:37:55.844Z,37.70
2023-01-13T13:41:17.733Z,42.70
2023-01-13T13:44:49.441Z,40.17
2023-01-13T13:47:51.810Z,40.60
2023-01-13T13:51:02.145Z,39.25
2023-01-13T13:54:05.046Z,36.95
2023-01-13T13:57:32.292Z,42.70
2023-01-13T14:00:38.061Z,44.13
2023-01-13T14:03:40.812Z,39.00
2023-01-13T14:06:51.838Z,37.90
2023-01-13T14:09:56.436Z,36.92
2023-01-13T14:13:00.754Z,38.33
2023-01-13T14:16:11.392Z,34.70
2023-01-13T14:19:28.758Z,34.63
2023-01-13T14:22:32.732Z,35.10
2023-01-13T14:25:49.196Z,33.65
2023-01-13T14:28:52.769Z,35.97
2023-01-13T14:31:55.319Z,38.53
2023-01-13T14:34:57.996Z,35.17
2023-01-13T14:38:04.395Z,36.85
2023-01-13T14:41:25.851Z,31.73
2023-01-13T14:44:31.753Z,38.15
2023-01-13T14:47:34.557Z,36.53
2023-01-13T14:50:37.147Z,30.35
2023-01-13T14:53:46.978Z,31.05
2023-01-13T14:56:50.599Z,33.05
2023-01-13T15:00:14.059Z,32.15
2023-01-13T15:03:21.454Z,30.20
2023-01-13T15:06:26.111Z,33.80
2023-01-13T15:09:36.535Z,40.12
2023-01-13T15:12:40.806Z,41.42
2023-01-13T15:15:43.185Z,32.00
2023-01-13T15:18:46.087Z,38.57
2023-01-13T15:21:48.536Z,40.90
2023-01-13T15:24:51.190Z,38.33
2023-01-13T15:27:53.805Z,40.35
2023-01-13T15:31:00.720Z,48.53
2023-01-13T15:34:03.229Z,38.50
2023-01-13T15:37:05.950Z,37.00
2023-01-13T15:40:18.236Z,40.20
2023-01-13T15:43:42.558Z,41.08
2023-01-13T15:46:45.313Z,45.63
2023-01-13T15:49:48.095Z,42.90
2023-01-13T15:52:50.492Z,37.10
2023-01-13T15:55:56.535Z,47.60
2023-01-13T15:58:59.122Z,37.10
2023-01-13T16:02:01.796Z,43.28
2023-01-13T16:05:05.606Z,40.90
2023-01-13T16:08:19.276Z,36.75
2023-01-13T16:11:21.891Z,42.72
2023-01-13T16:14:24.226Z,40.20
2023-01-13T16:17:30.220Z,41.03
2023-01-13T16:20:32.624Z,38.37
2023-01-13T16:23:35.234Z,43.30
2023-01-13T16:26:38.953Z,40.10
2023-01-13T16:29:42.290Z,40.28
2023-01-13T16:32:44.627Z,43.20
2023-01-13T16:36:10.388Z,39.37
2023-01-13T16:39:21.857Z,39.03
2023-01-13T16:42:24.547Z,37.38
2023-01-13T16:45:27.592Z,44.50
2023-01-13T16:48:30.255Z,41.83
2023-01-13T16:51:33.737Z,41.60
2023-01-13T16:54:36.808Z,37.08
2023-01-13T16:57:39.246Z,41.13
2023-01-13T17:00:42.007Z,36.03
2023-01-13T17:03:44.554Z,42.88
2023-01-13T17:07:08.380Z,36.80
2023-01-13T17:10:20.264Z,39.92
2023-01-13T17:13:26.605Z,36.78
2023-01-13T17:16:28.971Z,32.42
2023-01-13T17:19:31.685Z,37.60
2023-01-13T17:22:34.027Z,40.33
2023-01-13T17:25:36.612Z,32.65
2023-01-13T17:28:38.963Z,30.70
2023-01-13T17:31:41.847Z,37.30
2023-01-13T17:34:45.249Z,36.33
2023-01-13T17:37:47.930Z,38.00
2023-01-13T17:40:50.308Z,35.38
2023-01-13T17:43:53.754Z,39.08
2023-01-13T17:46:56.825Z,40.08
2023-01-13T17:49:59.651Z,31.65
2023-01-13T17:53:01.989Z,34.47
2023-01-13T17:56:04.812Z,41.08
2023-01-13T17:59:10.084Z,33.03
2023-01-13T18:02:15.355Z,36.25
2023-01-13T18:05:18.103Z,38.42
2023-01-13T18:08:21.716Z,41.07
2023-01-13T18:11:25.031Z,32.70
2023-01-13T18:14:28.166Z,32.28
2023-01-13T18:17:30.913Z,33.88
2023-01-13T18:20:51.767Z,35.10
2023-01-13T18:24:13.041Z,32.17
2023-01-13T18:27:19.916Z,33.53
2023-01-13T18:30:22.693Z,42.13
2023-01-13T18:33:25.274Z,37.05
2023-01-13T18:36:28.042Z,34.78
2023-01-13T18:39:30.411Z,37.90
2023-01-13T18:42:51.507Z,31.98
2023-01-13T18:45:53.995Z,36.85
2023-01-13T18:48:56.869Z,33.15
2023-01-13T18:51:59.286Z,36.75
2023-01-13T18:55:01.987Z,38.03
2023-01-13T18:58:04.543Z,39.65
2023-01-13T19:01:07.301Z,38.42
2023-01-13T19:04:18.897Z,35.70
2023-01-13T19:07:28.407Z,37.85
2023-01-13T19:10:32.490Z,42.23
2023-01-13T19:13:36.307Z,39.20
2023-01-13T19:16:39.260Z,36.00
2023-01-13T19:19:53.795Z,37.97
2023-01-13T19:22:56.218Z,35.40
2023-01-13T19:26:03.822Z,35.30
2023-01-13T19:29:06.350Z,36.17
2023-01-13T19:32:09.679Z,34.60
2023-01-13T19:35:17.793Z,43.72
2023-01-13T19:38:20.845Z,35.85
2023-01-13T19:41:41.791Z,36.93
2023-01-13T19:45:02.993Z,35.83
2023-01-13T19:48:08.253Z,36.42
2023-01-13T19:51:14.361Z,36.28
2023-01-13T19:54:16.704Z,38.40
2023-01-13T19:57:20.327Z,37.67
2023-01-13T20:00:23.795Z,41.37
2023-01-13T20:03:31.006Z,46.22
2023-01-13T20:06:33.604Z,36.90
2023-01-13T20:09:36.442Z,42.72
2023-01-13T20:12:39.161Z,39.00
2023-01-13T20:15:42.692Z,36.38
2023-01-13T20:18:49.115Z,39.15
2023-01-13T20:21:51.711Z,36.83
2023-01-13T20:24:55.181Z,37.88
2023-01-13T20:27:58.785Z,43.37
2023-01-13T20:31:01.189Z,44.97
2023-01-13T20:34:03.939Z,40.47
2023-01-13T20:37:06.305Z,46.78
2023-01-13T20:40:12.984Z,41.55
2023-01-13T20:43:17.597Z,41.93
2023-01-13T20:46:22.588Z,44.30
2023-01-13T20:49:26.857Z,44.30
2023-01-13T20:52:29.565Z,40.40
2023-01-13T20:55:31.999Z,40.92
2023-01-13T20:58:34.837Z,46.27
2023-01-13T21:01:37.859Z,40.90
2023-01-13T21:04:40.833Z,39.55
2023-01-13T21:07:43.198Z,43.50
2023-01-13T21:10:45.953Z,39.45
2023-01-13T21:14:06.801Z,45.97
2023-01-13T21:17:29.431Z,43.17
2023-01-13T21:20:34.077Z,45.92
2023-01-13T21:23:36.852Z,43.60
2023-01-13T21:26:40.202Z,48.17
2023-01-13T21:29:44.616Z,46.60
2023-01-13T21:32:47.443Z,49.97
2023-01-13T21:35:50.209Z,40.97
2023-01-13T21:38:54.242Z,42.17
2023-01-13T21:42:15.628Z,50.55
2023-01-13T21:45:37.524Z,51.43
2023-01-13T21:48:40.702Z,48.55
2023-01-13T21:51:44.900Z,51.40
2023-01-13T21:55:06.764Z,47.20
2023-01-13T21:58:15.560Z,55.65
2023-01-13T22:01:19.256Z,54.50
2023-01-13T22:04:22.447Z,49.72
2023-01-13T22:07:25.745Z,50.38
2023-01-13T22:10:30.733Z,49.17
2023-01-13T22:13:51.862Z,52.53
2023-01-13T22:16:56.791Z,56.07
2023-01-13T22:19:59.999Z,46.60
2023-01-13T22:23:03.007Z,54.72
2023-01-13T22:26:06.977Z,50.22
2023-01-13T22:29:09.810Z,48.92
2023-01-13T22:32:12.417Z,51.17
2023-01-13T22:35:16.128Z,50.72
2023-01-13T22:38:18.472Z,47.40
2023-01-13T22:41:21.187Z,54.75
2023-01-13T22:44:23.802Z,54.50
2023-01-13T22:47:26.415Z,48.13
2023-01-13T22:50:28.826Z,47.22
2023-01-13T22:53:31.460Z,54.30
2023-01-13T22:56:34.027Z,48.80
2023-01-13T22:59:36.784Z,44.63
2023-01-13T23:02:39.138Z,47.57
2023-01-13T23:05:42.035Z,53.20
2023-01-13T23:08:45.543Z,51.65
2023-01-13T23:11:48.334Z,53.87
2023-01-13T23:14:50.744Z,46.97
2023-01-13T23:17:53.477Z,46.50
2023-01-13T23:20:55.935Z,49.03
2023-01-13T23:24:00.461Z,44.22
2023-01-13T23:27:02.931Z,50.08
2023-01-13T23:30:07.661Z,49.95
2023-01-13T23:33:10.052Z,53.63
2023-01-13T23:36:24.125Z,51.53
2023-01-13T23:39:26.942Z,51.20
2023-01-13T23:42:29.601Z,51.47
2023-01-13T23:45:32.502Z,51.00
2023-01-13T23:48:36.121Z,50.77
2023-01-13T23:51:38.517Z,49.70
2023-01-13T23:54:41.135Z,50.12
2023-01-13T23:57:43.475Z,53.83
